Time;durP1;ratioP1;P1;durP2;ratioP2;P2;SDS_P1;SDS_P2;PMS_P1;PMS_P2;Temp;Humidity;BMP_temperature;BMP_pressure;BME280_temperature;BME280_humidity;BME280_pressure;Samples;Min_cycle;Max_cycle;Signal;HPM_P1;HPM_P2
2022/08/02 00:02:03;;;;;;;;;;;20.80;95.10;;;;;;5074297;28;19973;-50
2022/08/02 00:04:29;;;;;;;;;;;20.90;95.00;;;;;;5076913;28;20307;-49
2022/08/02 00:06:55;;;;;;;;;;;20.80;95.10;;;;;;5094641;28;19908;-49
2022/08/02 00:09:21;;;;;;;;;;;20.70;95.00;;;;;;5084910;28;19920;-53
2022/08/02 00:11:46;;;;;;;;;;;20.70;95.10;;;;;;5089573;28;20411;-54
2022/08/02 00:14:12;;;;;;;;;;;20.80;95.30;;;;;;5084673;28;19948;-49
2022/08/02 00:16:38;;;;;;;;;;;20.70;95.10;;;;;;5073995;28;19913;-46
2022/08/02 00:19:04;;;;;;;;;;;20.70;95.10;;;;;;5074831;28;19955;-48
2022/08/02 00:21:29;;;;;;;;;;;20.80;95.20;;;;;;5089132;28;19909;-51
2022/08/02 00:23:55;;;;;;;;;;;20.70;95.20;;;;;;5075141;28;19921;-47
2022/08/02 00:26:20;;;;;;;;;;;20.80;95.00;;;;;;5093306;28;20015;-48
2022/08/02 00:28:46;;;;;;;;;;;20.80;94.80;;;;;;5094296;28;19913;-53
2022/08/02 00:31:12;;;;;;;;;;;20.70;95.00;;;;;;5074555;28;19919;-50
2022/08/02 00:33:38;;;;;;;;;;;20.60;94.90;;;;;;5076185;28;19917;-51
2022/08/02 00:36:03;;;;;;;;;;;20.60;95.20;;;;;;5093858;28;20430;-51
2022/08/02 00:38:29;;;;;;;;;;;20.60;95.20;;;;;;5093614;28;19995;-51
2022/08/02 00:40:54;;;;;;;;;;;20.40;95.40;;;;;;5075926;28;19917;-51
2022/08/02 00:43:20;;;;;;;;;;;20.40;95.70;;;;;;5083810;28;20397;-52
2022/08/02 00:45:45;;;;;;;;;;;20.30;95.60;;;;;;5073786;28;20279;-51
2022/08/02 00:48:11;;;;;;;;;;;20.30;95.50;;;;;;5092309;28;20379;-52
2022/08/02 00:50:37;;;;;;;;;;;20.30;95.70;;;;;;5094469;28;19919;-51
2022/08/02 00:53:03;;;;;;;;;;;20.20;95.70;;;;;;5075128;28;19915;-49
2022/08/02 00:55:29;;;;;;;;;;;20.30;95.70;;;;;;5071737;28;19916;-49
2022/08/02 00:57:54;;;;;;;;;;;20.30;95.50;;;;;;5069030;28;19916;-50
2022/08/02 01:00:20;;;;;;;;;;;20.10;95.70;;;;;;5070345;28;19921;-50
2022/08/02 01:02:45;;;;;;;;;;;20.10;95.90;;;;;;5071586;28;20299;-53
2022/08/02 01:05:11;;;;;;;;;;;20.10;96.00;;;;;;5074169;28;19912;-50
2022/08/02 01:07:37;;;;;;;;;;;20.10;95.90;;;;;;5090066;28;20359;-53
2022/08/02 01:10:03;;;;;;;;;;;20.00;95.80;;;;;;5080671;28;19913;-50
2022/08/02 01:12:29;;;;;;;;;;;20.10;96.10;;;;;;5076418;28;19990;-54
2022/08/02 01:14:55;;;;;;;;;;;20.00;96.10;;;;;;5079670;28;20326;-51
2022/08/02 01:17:21;;;;;;;;;;;20.00;96.10;;;;;;5087689;28;19920;-51
2022/08/02 01:19:49;;;;;;;;;;;20.00;96.40;;;;;;5083017;28;19912;-50
2022/08/02 01:22:33;;;;;;;;;;;19.90;96.50;;;;;;5072222;28;19916;-52
2022/08/02 01:25:07;;;;;;;;;;;19.80;96.60;;;;;;5068647;28;19967;-49
2022/08/02 01:27:42;;;;;;;;;;;19.80;96.60;;;;;;5083714;28;19920;-49
2022/08/02 01:30:09;;;;;;;;;;;19.80;96.70;;;;;;5094060;28;19908;-53
2022/08/02 01:32:40;;;;;;;;;;;19.80;96.90;;;;;;5083748;28;20287;-54
2022/08/02 01:35:08;;;;;;;;;;;19.80;96.90;;;;;;5071239;28;19912;-54
2022/08/02 01:37:45;;;;;;;;;;;19.90;96.70;;;;;;5075687;28;19960;-48
2022/08/02 01:40:12;;;;;;;;;;;19.90;96.70;;;;;;5081896;28;20290;-54
2022/08/02 01:42:40;;;;;;;;;;;19.80;96.70;;;;;;5093023;28;19916;-47
2022/08/02 01:45:07;;;;;;;;;;;19.60;97.00;;;;;;5077210;28;19920;-48
2022/08/02 01:47:34;;;;;;;;;;;19.80;96.90;;;;;;5078336;28;19950;-52
2022/08/02 01:50:01;;;;;;;;;;;19.70;96.60;;;;;;5084900;28;19916;-49
2022/08/02 01:52:31;;;;;;;;;;;19.70;96.80;;;;;;5080861;28;20338;-51
2022/08/02 01:54:57;;;;;;;;;;;19.70;96.90;;;;;;5073994;28;20349;-52
2022/08/02 01:57:23;;;;;;;;;;;19.70;96.90;;;;;;5073789;28;19912;-49
2022/08/02 01:59:50;;;;;;;;;;;19.70;97.30;;;;;;5090908;28;19916;-54
2022/08/02 02:02:17;;;;;;;;;;;19.70;97.40;;;;;;5092447;28;19965;-52
2022/08/02 02:04:43;;;;;;;;;;;19.70;97.10;;;;;;5075409;28;20434;-51
2022/08/02 02:07:09;;;;;;;;;;;19.70;97.10;;;;;;5072929;28;19951;-50
2022/08/02 02:09:37;;;;;;;;;;;19.80;96.90;;;;;;5092701;28;19912;-50
2022/08/02 02:12:04;;;;;;;;;;;19.70;96.90;;;;;;5092939;28;19912;-49
2022/08/02 02:14:30;;;;;;;;;;;19.80;96.80;;;;;;5073781;28;19912;-48
2022/08/02 02:16:57;;;;;;;;;;;19.70;96.80;;;;;;5091029;28;20228;-49
2022/08/02 02:19:23;;;;;;;;;;;19.80;97.10;;;;;;5076353;28;20002;-51
2022/08/02 02:21:49;;;;;;;;;;;19.70;97.00;;;;;;5084960;28;19912;-50
2022/08/02 02:24:15;;;;;;;;;;;19.70;97.00;;;;;;5091532;28;19931;-50
2022/08/02 02:26:41;;;;;;;;;;;19.60;97.20;;;;;;5092755;28;19913;-51
2022/08/02 02:29:08;;;;;;;;;;;19.50;97.40;;;;;;5091826;28;19970;-50
2022/08/02 02:31:41;;;;;;;;;;;19.50;97.30;;;;;;5077496;28;19968;-49
2022/08/02 02:34:12;;;;;;;;;;;19.30;97.60;;;;;;5074395;28;19913;-50
2022/08/02 02:36:38;;;;;;;;;;;19.30;97.30;;;;;;5092431;28;19912;-49
2022/08/02 02:39:05;;;;;;;;;;;19.20;97.30;;;;;;5076039;28;19966;-49
2022/08/02 02:41:31;;;;;;;;;;;19.20;97.60;;;;;;5090509;28;19919;-50
2022/08/02 02:43:58;;;;;;;;;;;19.10;97.70;;;;;;5077766;28;19916;-49
2022/08/02 02:46:25;;;;;;;;;;;19.20;97.70;;;;;;5073307;28;19924;-52
2022/08/02 02:48:52;;;;;;;;;;;19.10;97.70;;;;;;5077667;28;19916;-53
2022/08/02 02:51:18;;;;;;;;;;;19.10;97.80;;;;;;5082033;28;19917;-54
2022/08/02 02:53:45;;;;;;;;;;;19.00;97.80;;;;;;5075225;28;19956;-53
2022/08/02 02:56:12;;;;;;;;;;;19.00;98.10;;;;;;5073672;28;20277;-50
2022/08/02 02:58:38;;;;;;;;;;;18.80;98.20;;;;;;5080755;28;19916;-50
2022/08/02 03:03:48;;;;;;;;;;;18.90;98.20;;;;;;5073841;28;19913;-51
2022/08/02 03:06:14;;;;;;;;;;;18.80;97.90;;;;;;5074739;28;20395;-52
2022/08/02 03:08:39;;;;;;;;;;;18.80;98.00;;;;;;5084583;28;19916;-53
2022/08/02 03:11:07;;;;;;;;;;;18.80;98.40;;;;;;5093561;28;19913;-53
2022/08/02 03:13:32;;;;;;;;;;;18.80;97.80;;;;;;5089403;28;19913;-53
2022/08/02 03:15:58;;;;;;;;;;;18.80;97.50;;;;;;5073035;28;19920;-52
2022/08/02 03:18:34;;;;;;;;;;;18.80;97.30;;;;;;5082194;28;19916;-53
2022/08/02 03:21:05;;;;;;;;;;;18.80;97.70;;;;;;5079444;28;19916;-56
2022/08/02 03:23:31;;;;;;;;;;;18.80;97.80;;;;;;5072615;28;19917;-53
2022/08/02 03:25:57;;;;;;;;;;;18.80;97.60;;;;;;5087706;28;19916;-50
2022/08/02 03:28:22;;;;;;;;;;;18.90;96.90;;;;;;5079127;28;19912;-50
2022/08/02 03:30:48;;;;;;;;;;;19.00;96.70;;;;;;5071858;28;19919;-52
2022/08/02 03:33:14;;;;;;;;;;;18.90;96.70;;;;;;5073423;28;19940;-51
2022/08/02 03:35:40;;;;;;;;;;;18.70;96.60;;;;;;5074463;28;20077;-49
2022/08/02 03:38:06;;;;;;;;;;;18.70;96.70;;;;;;5082269;28;19912;-50
2022/08/02 03:40:32;;;;;;;;;;;18.70;96.80;;;;;;5089363;28;19923;-51
2022/08/02 03:42:58;;;;;;;;;;;18.70;96.90;;;;;;5076199;28;19934;-52
2022/08/02 03:45:24;;;;;;;;;;;18.70;96.70;;;;;;5083312;28;19920;-53
2022/08/02 03:47:50;;;;;;;;;;;18.70;96.50;;;;;;5090178;28;20003;-48
2022/08/02 03:50:17;;;;;;;;;;;18.70;96.40;;;;;;5075433;28;19948;-47
2022/08/02 03:52:43;;;;;;;;;;;18.80;96.60;;;;;;5078090;28;19924;-48
2022/08/02 03:55:10;;;;;;;;;;;18.70;96.30;;;;;;5074798;28;19917;-49
2022/08/02 03:57:37;;;;;;;;;;;18.80;96.70;;;;;;5087944;28;19931;-49
2022/08/02 04:00:03;;;;;;;;;;;18.80;96.60;;;;;;5074187;28;19935;-51
2022/08/02 04:02:28;;;;;;;;;;;18.90;96.60;;;;;;5093683;28;19916;-48
2022/08/02 04:04:54;;;;;;;;;;;19.00;96.00;;;;;;5087534;28;20022;-47
2022/08/02 04:07:19;;;;;;;;;;;19.00;96.30;;;;;;5079686;28;19963;-53
2022/08/02 04:09:45;;;;;;;;;;;19.00;96.20;;;;;;5075087;28;19912;-47
2022/08/02 04:12:10;;;;;;;;;;;19.00;96.00;;;;;;5078425;28;19976;-47
2022/08/02 04:14:36;;;;;;;;;;;19.00;96.10;;;;;;5092973;28;19989;-51
2022/08/02 04:17:04;;;;;;;;;;;18.90;96.10;;;;;;5094463;28;20357;-49
2022/08/02 04:19:36;;;;;;;;;;;18.80;96.20;;;;;;5075049;28;19966;-51
2022/08/02 04:22:06;;;;;;;;;;;18.80;96.30;;;;;;5074534;28;20310;-52
2022/08/02 04:24:36;;;;;;;;;;;18.80;96.40;;;;;;5083162;28;20291;-48
2022/08/02 04:27:03;;;;;;;;;;;18.90;96.50;;;;;;5080612;28;19913;-52
2022/08/02 04:29:29;;;;;;;;;;;18.80;96.40;;;;;;5073373;28;20359;-51
2022/08/02 04:31:54;;;;;;;;;;;18.90;96.30;;;;;;5073927;28;19963;-52
2022/08/02 04:34:20;;;;;;;;;;;18.90;96.30;;;;;;5076040;28;19924;-52
2022/08/02 04:36:46;;;;;;;;;;;18.90;96.20;;;;;;5084914;28;20380;-50
2022/08/02 04:39:11;;;;;;;;;;;18.90;96.60;;;;;;5094529;28;20363;-48
2022/08/02 04:41:41;;;;;;;;;;;18.90;96.70;;;;;;5069607;28;19927;-49
2022/08/02 04:44:07;;;;;;;;;;;19.00;96.40;;;;;;5073542;28;19916;-48
2022/08/02 04:46:34;;;;;;;;;;;18.90;96.50;;;;;;5075749;28;20485;-47
2022/08/02 04:49:00;;;;;;;;;;;19.00;96.40;;;;;;5073906;28;19942;-49
2022/08/02 04:51:25;;;;;;;;;;;19.00;96.30;;;;;;5074288;28;20443;-51
2022/08/02 04:53:51;;;;;;;;;;;18.90;96.10;;;;;;5077732;28;19916;-50
2022/08/02 04:56:16;;;;;;;;;;;18.80;96.00;;;;;;5085796;28;20257;-48
2022/08/02 04:58:42;;;;;;;;;;;18.80;96.30;;;;;;5073554;28;19916;-51
2022/08/02 05:01:07;;;;;;;;;;;18.80;96.30;;;;;;5073482;28;19920;-53
2022/08/02 05:03:33;;;;;;;;;;;18.80;96.30;;;;;;5074263;28;20349;-54
2022/08/02 05:05:59;;;;;;;;;;;18.80;96.40;;;;;;5081249;28;19920;-52
2022/08/02 05:08:25;;;;;;;;;;;18.90;96.20;;;;;;5093599;28;20299;-51
2022/08/02 05:10:51;;;;;;;;;;;19.10;96.30;;;;;;5087071;28;19912;-53
2022/08/02 05:13:16;;;;;;;;;;;19.20;96.00;;;;;;5074135;28;19958;-51
2022/08/02 05:15:42;;;;;;;;;;;19.50;95.70;;;;;;5090368;28;19912;-54
2022/08/02 05:18:08;;;;;;;;;;;19.50;95.30;;;;;;5083172;28;19917;-49
2022/08/02 05:20:33;;;;;;;;;;;19.50;95.30;;;;;;5091184;28;19923;-52
2022/08/02 05:22:58;;;;;;;;;;;19.60;95.50;;;;;;5091782;28;19944;-51
2022/08/02 05:25:24;;;;;;;;;;;19.60;95.50;;;;;;5089709;28;19951;-46
2022/08/02 05:27:50;;;;;;;;;;;19.60;94.70;;;;;;5085203;28;20287;-54
2022/08/02 05:30:15;;;;;;;;;;;19.50;95.30;;;;;;5092393;28;19966;-51
2022/08/02 05:32:45;;;;;;;;;;;19.60;95.10;;;;;;5093637;28;20392;-51
2022/08/02 05:35:10;;;;;;;;;;;19.60;95.00;;;;;;5075827;28;19913;-51
2022/08/02 05:37:36;;;;;;;;;;;19.70;95.20;;;;;;5083051;28;19912;-48
2022/08/02 05:40:02;;;;;;;;;;;19.70;95.30;;;;;;5073890;28;19970;-52
2022/08/02 05:42:31;;;;;;;;;;;19.80;95.20;;;;;;5087539;28;20006;-50
2022/08/02 05:44:56;;;;;;;;;;;19.70;95.10;;;;;;5077824;28;20398;-50
2022/08/02 05:47:23;;;;;;;;;;;19.60;94.80;;;;;;5077549;28;19955;-49
2022/08/02 05:49:48;;;;;;;;;;;19.50;94.80;;;;;;5093694;28;20263;-50
2022/08/02 05:52:16;;;;;;;;;;;19.50;94.60;;;;;;5082198;28;19923;-52
2022/08/02 05:54:41;;;;;;;;;;;19.60;94.60;;;;;;5073731;28;20406;-48
2022/08/02 05:57:16;;;;;;;;;;;19.60;94.60;;;;;;5071843;28;19909;-47
2022/08/02 05:59:53;;;;;;;;;;;19.60;94.60;;;;;;5087364;28;19943;-47
2022/08/02 06:02:26;;;;;;;;;;;19.60;94.70;;;;;;5075288;28;19916;-50
2022/08/02 06:05:02;;;;;;;;;;;19.70;94.60;;;;;;5082800;28;19912;-53
2022/08/02 06:07:28;;;;;;;;;;;19.70;94.60;;;;;;5072392;28;20343;-47
2022/08/02 06:09:54;;;;;;;;;;;19.70;94.70;;;;;;5073857;28;19908;-52
2022/08/02 06:12:20;;;;;;;;;;;19.80;94.50;;;;;;5092567;28;20004;-48
2022/08/02 06:14:46;;;;;;;;;;;20.00;94.50;;;;;;5090770;28;20296;-49
2022/08/02 06:17:12;;;;;;;;;;;20.10;94.30;;;;;;5074471;28;19962;-51
2022/08/02 06:19:39;;;;;;;;;;;20.30;94.10;;;;;;5093550;28;19916;-49
2022/08/02 06:22:15;;;;;;;;;;;20.30;93.90;;;;;;5077125;28;19920;-52
2022/08/02 06:24:44;;;;;;;;;;;20.30;93.90;;;;;;5084721;28;20054;-49
2022/08/02 06:27:13;;;;;;;;;;;20.40;93.40;;;;;;5090185;28;19915;-50
2022/08/02 06:29:42;;;;;;;;;;;20.50;93.20;;;;;;5081297;28;20338;-49
2022/08/02 06:32:08;;;;;;;;;;;20.50;93.20;;;;;;5089137;28;19908;-52
2022/08/02 06:34:37;;;;;;;;;;;20.50;93.40;;;;;;5092604;28;20386;-51
2022/08/02 06:37:11;;;;;;;;;;;20.50;93.00;;;;;;5076107;28;19908;-49
2022/08/02 06:39:43;;;;;;;;;;;20.40;92.80;;;;;;5057518;28;19963;-49
2022/08/02 06:42:11;;;;;;;;;;;20.40;92.60;;;;;;5075215;28;19909;-50
2022/08/02 06:44:37;;;;;;;;;;;20.30;92.80;;;;;;5080177;28;19913;-50
2022/08/02 06:47:03;;;;;;;;;;;20.40;93.10;;;;;;5070110;28;20303;-49
2022/08/02 06:49:28;;;;;;;;;;;20.60;93.20;;;;;;5072860;28;19912;-48
2022/08/02 06:51:54;;;;;;;;;;;20.80;92.30;;;;;;5071744;28;19943;-51
2022/08/02 06:54:20;;;;;;;;;;;21.00;91.90;;;;;;5071932;28;20361;-48
2022/08/02 06:56:46;;;;;;;;;;;21.10;92.00;;;;;;5076490;28;20244;-51
2022/08/02 06:59:12;;;;;;;;;;;21.20;91.40;;;;;;5074876;28;20383;-51
2022/08/02 07:01:37;;;;;;;;;;;21.20;90.70;;;;;;5089653;28;19920;-52
2022/08/02 07:04:03;;;;;;;;;;;21.40;90.10;;;;;;5092957;28;19919;-48
2022/08/02 07:06:29;;;;;;;;;;;21.50;90.50;;;;;;5072764;28;20605;-54
2022/08/02 07:08:55;;;;;;;;;;;21.60;90.40;;;;;;5085643;28;20292;-48
2022/08/02 07:11:21;;;;;;;;;;;21.50;90.30;;;;;;5092053;28;19920;-49
2022/08/02 07:13:46;;;;;;;;;;;21.70;89.70;;;;;;5076725;28;20534;-53
2022/08/02 07:16:12;;;;;;;;;;;21.50;88.70;;;;;;5072370;28;19916;-51
2022/08/02 07:18:37;;;;;;;;;;;21.60;89.50;;;;;;5072506;28;19916;-48
2022/08/02 07:21:06;;;;;;;;;;;21.70;90.20;;;;;;5076757;28;19916;-54
2022/08/02 07:23:32;;;;;;;;;;;21.80;89.50;;;;;;5075205;28;19931;-48
2022/08/02 07:25:58;;;;;;;;;;;21.90;89.10;;;;;;5070900;28;19913;-48
2022/08/02 07:28:23;;;;;;;;;;;22.00;88.90;;;;;;5066643;28;19917;-49
2022/08/02 07:30:49;;;;;;;;;;;21.80;88.70;;;;;;5071783;28;19913;-52
2022/08/02 07:33:14;;;;;;;;;;;21.90;88.90;;;;;;5070947;28;19916;-47
2022/08/02 07:35:40;;;;;;;;;;;22.00;88.60;;;;;;5086082;28;20003;-55
2022/08/02 07:38:06;;;;;;;;;;;22.10;89.40;;;;;;5083697;28;19912;-55
2022/08/02 07:40:31;;;;;;;;;;;22.30;88.80;;;;;;5091849;28;19967;-49
2022/08/02 07:42:57;;;;;;;;;;;22.30;87.50;;;;;;5082189;28;19928;-55
2022/08/02 07:45:23;;;;;;;;;;;22.20;87.70;;;;;;5064971;28;20007;-53
2022/08/02 07:47:49;;;;;;;;;;;22.20;88.40;;;;;;5064214;28;19912;-54
2022/08/02 07:50:16;;;;;;;;;;;22.30;88.00;;;;;;5070123;28;19920;-53
2022/08/02 07:52:42;;;;;;;;;;;22.50;87.80;;;;;;5081841;28;19939;-50
2022/08/02 07:55:08;;;;;;;;;;;22.60;87.40;;;;;;5083838;28;20628;-51
2022/08/02 07:57:34;;;;;;;;;;;22.80;86.80;;;;;;5070566;28;19999;-51
2022/08/02 07:59:59;;;;;;;;;;;22.80;86.50;;;;;;5069917;28;20336;-52
2022/08/02 08:02:25;;;;;;;;;;;22.80;86.60;;;;;;5062422;28;19950;-51
2022/08/02 08:04:51;;;;;;;;;;;22.90;86.30;;;;;;5083489;28;20017;-52
2022/08/02 08:07:16;;;;;;;;;;;23.00;86.00;;;;;;5068395;28;20333;-52
2022/08/02 08:09:42;;;;;;;;;;;23.00;86.80;;;;;;5069286;28;19916;-52
2022/08/02 08:12:08;;;;;;;;;;;23.20;86.40;;;;;;5072113;28;19908;-54
2022/08/02 08:14:34;;;;;;;;;;;23.10;85.50;;;;;;5090960;28;19908;-54
2022/08/02 08:16:59;;;;;;;;;;;23.10;85.30;;;;;;5089168;28;20423;-57
2022/08/02 08:19:25;;;;;;;;;;;23.10;85.70;;;;;;5067718;28;19912;-54
2022/08/02 08:21:51;;;;;;;;;;;22.90;85.90;;;;;;5072316;28;20283;-50
2022/08/02 08:24:16;;;;;;;;;;;22.90;85.70;;;;;;5075728;28;19916;-52
2022/08/02 08:26:42;;;;;;;;;;;23.00;86.10;;;;;;5073550;28;19912;-55
2022/08/02 08:29:07;;;;;;;;;;;23.10;86.20;;;;;;5070025;28;19962;-53
2022/08/02 08:31:33;;;;;;;;;;;23.30;86.00;;;;;;5056534;28;19961;-54
2022/08/02 08:33:59;;;;;;;;;;;23.40;85.40;;;;;;5073250;28;19956;-51
2022/08/02 08:36:24;;;;;;;;;;;23.50;85.40;;;;;;5069667;28;20379;-56
2022/08/02 08:38:50;;;;;;;;;;;23.50;85.00;;;;;;5078268;28;19915;-52
2022/08/02 08:41:16;;;;;;;;;;;23.50;85.90;;;;;;5077732;28;20383;-54
2022/08/02 08:43:42;;;;;;;;;;;23.60;85.40;;;;;;5070100;28;19917;-52
2022/08/02 08:46:09;;;;;;;;;;;23.60;85.60;;;;;;5078892;28;20172;-51
2022/08/02 08:48:37;;;;;;;;;;;23.70;85.20;;;;;;5073646;28;19966;-53
2022/08/02 08:51:16;;;;;;;;;;;23.50;85.00;;;;;;5075814;28;19916;-56
2022/08/02 08:53:43;;;;;;;;;;;23.40;85.10;;;;;;5053948;28;19979;-52
2022/08/02 08:56:10;;;;;;;;;;;23.50;85.20;;;;;;5078605;28;19928;-54
2022/08/02 08:58:37;;;;;;;;;;;23.50;85.60;;;;;;5073699;28;19913;-53
2022/08/02 09:01:03;;;;;;;;;;;23.60;85.60;;;;;;5088544;28;19916;-56
2022/08/02 09:03:28;;;;;;;;;;;23.80;84.30;;;;;;5093745;28;20371;-55
2022/08/02 09:05:56;;;;;;;;;;;23.80;84.30;;;;;;5079569;28;19917;-54
2022/08/02 09:08:22;;;;;;;;;;;23.70;84.20;;;;;;5068719;28;19997;-54
2022/08/02 09:10:48;;;;;;;;;;;23.60;85.00;;;;;;5073623;28;20379;-53
2022/08/02 09:13:15;;;;;;;;;;;23.70;84.50;;;;;;5073339;28;19909;-53
2022/08/02 09:15:41;;;;;;;;;;;23.70;84.90;;;;;;5073562;28;19916;-54
2022/08/02 09:18:07;;;;;;;;;;;23.70;85.20;;;;;;5073372;28;20350;-53
2022/08/02 09:20:34;;;;;;;;;;;23.90;84.80;;;;;;5078168;28;19912;-52
2022/08/02 09:23:09;;;;;;;;;;;24.00;84.60;;;;;;5071402;28;19974;-49
2022/08/02 09:25:35;;;;;;;;;;;24.10;83.80;;;;;;5069603;28;19924;-52
2022/08/02 09:28:01;;;;;;;;;;;24.00;83.90;;;;;;5077971;28;19912;-54
2022/08/02 09:30:27;;;;;;;;;;;23.90;84.50;;;;;;5077879;28;19913;-53
2022/08/02 09:32:53;;;;;;;;;;;24.00;84.10;;;;;;5067523;28;20401;-54
2022/08/02 09:35:35;;;;;;;;;;;23.90;84.20;;;;;;5064803;28;19913;-52
2022/08/02 09:38:10;;;;;;;;;;;24.00;84.00;;;;;;5066997;28;19916;-55
2022/08/02 09:40:39;;;;;;;;;;;24.20;83.60;;;;;;5071481;28;20465;-54
2022/08/02 09:43:05;;;;;;;;;;;24.30;83.60;;;;;;5074341;28;19927;-54
2022/08/02 09:45:34;;;;;;;;;;;24.40;84.20;;;;;;5068132;28;20012;-57
2022/08/02 09:48:09;;;;;;;;;;;24.50;83.90;;;;;;5071425;28;20147;-54
2022/08/02 09:50:37;;;;;;;;;;;24.70;83.50;;;;;;5072230;28;21479;-54
2022/08/02 09:53:03;;;;;;;;;;;24.90;82.60;;;;;;5073553;28;19916;-53
2022/08/02 09:55:28;;;;;;;;;;;24.80;82.50;;;;;;5078515;28;19923;-52
2022/08/02 09:57:54;;;;;;;;;;;24.60;83.20;;;;;;5073493;28;20508;-53
2022/08/02 10:00:20;;;;;;;;;;;24.50;84.20;;;;;;5074358;28;20012;-54
2022/08/02 10:03:06;;;;;;;;;;;24.50;84.10;;;;;;5071653;28;19917;-53
2022/08/02 10:05:45;;;;;;;;;;;24.40;84.50;;;;;;5069508;28;19926;-56
2022/08/02 10:08:10;;;;;;;;;;;24.50;84.30;;;;;;5072497;28;19959;-52
2022/08/02 10:10:36;;;;;;;;;;;24.60;84.50;;;;;;5073037;28;20292;-56
2022/08/02 10:13:02;;;;;;;;;;;24.60;83.60;;;;;;5069726;28;19917;-57
2022/08/02 10:15:28;;;;;;;;;;;24.40;83.80;;;;;;5067545;28;20011;-55
2022/08/02 10:17:53;;;;;;;;;;;24.40;83.60;;;;;;5072104;28;20390;-55
2022/08/02 10:20:19;;;;;;;;;;;24.50;83.20;;;;;;5072334;28;19920;-52
2022/08/02 10:22:45;;;;;;;;;;;24.40;83.40;;;;;;5072235;28;19921;-55
2022/08/02 10:25:12;;;;;;;;;;;24.40;83.20;;;;;;5071806;28;20380;-56
2022/08/02 10:27:37;;;;;;;;;;;24.60;83.10;;;;;;5072303;28;19917;-56
2022/08/02 10:30:03;;;;;;;;;;;24.70;82.20;;;;;;5073419;28;19919;-56
2022/08/02 10:32:30;;;;;;;;;;;24.60;82.90;;;;;;5072241;28;19916;-55
2022/08/02 10:35:07;;;;;;;;;;;24.80;82.30;;;;;;5071104;28;20003;-54
2022/08/02 10:37:36;;;;;;;;;;;25.00;81.20;;;;;;5070495;28;19920;-57
2022/08/02 10:40:02;;;;;;;;;;;25.00;81.10;;;;;;5072075;28;20352;-53
2022/08/02 10:42:47;;;;;;;;;;;25.20;81.80;;;;;;5072114;28;19912;-55
2022/08/02 10:45:14;;;;;;;;;;;25.40;81.70;;;;;;5074121;28;19916;-49
2022/08/02 10:47:54;;;;;;;;;;;25.40;81.00;;;;;;5072735;28;19956;-53
2022/08/02 10:50:40;;;;;;;;;;;25.60;80.60;;;;;;5091782;28;19908;-52
2022/08/02 10:53:24;;;;;;;;;;;25.50;80.60;;;;;;5077983;28;19938;-55
2022/08/02 10:55:50;;;;;;;;;;;25.40;80.90;;;;;;5087015;28;19912;-52
2022/08/02 10:58:22;;;;;;;;;;;25.40;80.80;;;;;;5085652;28;20376;-51
2022/08/02 11:00:49;;;;;;;;;;;25.40;80.50;;;;;;5071735;28;20013;-57
2022/08/02 11:03:27;;;;;;;;;;;25.50;80.40;;;;;;5076535;28;19927;-51
2022/08/02 11:06:02;;;;;;;;;;;25.60;80.90;;;;;;5091760;28;19966;-53
2022/08/02 11:08:28;;;;;;;;;;;25.60;80.20;;;;;;5084963;28;19919;-55
2022/08/02 11:11:00;;;;;;;;;;;25.40;79.50;;;;;;5071582;28;19908;-50
2022/08/02 11:13:27;;;;;;;;;;;25.20;79.90;;;;;;5075930;28;19912;-54
2022/08/02 11:16:03;;;;;;;;;;;25.50;80.70;;;;;;5091469;28;19908;-56
2022/08/02 11:18:47;;;;;;;;;;;25.40;80.70;;;;;;5085852;28;20014;-53
2022/08/02 11:21:27;;;;;;;;;;;25.50;80.10;;;;;;5071170;28;19916;-53
2022/08/02 11:23:53;;;;;;;;;;;25.40;79.60;;;;;;5073874;28;19916;-55
2022/08/02 11:26:30;;;;;;;;;;;25.40;80.00;;;;;;5070632;28;20371;-54
2022/08/02 11:29:00;;;;;;;;;;;25.60;79.90;;;;;;5071066;28;19967;-54
2022/08/02 11:31:26;;;;;;;;;;;25.70;77.40;;;;;;5071043;28;19912;-54
2022/08/02 11:33:52;;;;;;;;;;;25.70;77.00;;;;;;5090680;28;19913;-53
2022/08/02 11:36:17;;;;;;;;;;;25.60;76.30;;;;;;5085360;28;19916;-56
2022/08/02 11:38:43;;;;;;;;;;;25.60;77.10;;;;;;5090992;28;19912;-53
2022/08/02 11:41:17;;;;;;;;;;;25.70;76.90;;;;;;5081300;28;20010;-55
2022/08/02 11:43:43;;;;;;;;;;;25.80;75.90;;;;;;5067256;28;19967;-55
2022/08/02 11:46:15;;;;;;;;;;;25.70;76.30;;;;;;5071240;28;19912;-51
2022/08/02 11:48:41;;;;;;;;;;;25.50;76.60;;;;;;5071010;28;19919;-51
2022/08/02 11:51:08;;;;;;;;;;;25.40;77.50;;;;;;5077671;28;19916;-52
2022/08/02 11:53:42;;;;;;;;;;;25.40;77.20;;;;;;5071339;28;19908;-50
2022/08/02 11:56:09;;;;;;;;;;;25.40;77.30;;;;;;5081735;28;19951;-53
2022/08/02 11:58:35;;;;;;;;;;;25.50;77.40;;;;;;5095798;28;19908;-52
2022/08/02 12:01:00;;;;;;;;;;;25.70;76.40;;;;;;5081313;28;19927;-53
2022/08/02 12:03:26;;;;;;;;;;;26.00;75.70;;;;;;5087203;28;19920;-56
2022/08/02 12:05:52;;;;;;;;;;;26.10;76.10;;;;;;5094846;28;19919;-54
2022/08/02 12:08:18;;;;;;;;;;;26.20;75.60;;;;;;5093995;28;19924;-51
2022/08/02 12:10:49;;;;;;;;;;;26.20;76.00;;;;;;5095510;28;19908;-55
2022/08/02 12:13:15;;;;;;;;;;;26.40;76.00;;;;;;5076546;28;20388;-57
2022/08/02 12:15:44;;;;;;;;;;;26.50;75.90;;;;;;5092103;28;19912;-54
2022/08/02 12:20:58;;;;;;;;;;;26.60;75.20;;;;;;5075546;28;19921;-53
2022/08/02 12:23:24;;;;;;;;;;;26.60;75.20;;;;;;5075469;28;19977;-54
2022/08/02 12:26:03;;;;;;;;;;;26.50;75.10;;;;;;5077587;28;19939;-53
2022/08/02 12:28:31;;;;;;;;;;;26.60;75.40;;;;;;5074212;28;19948;-54
2022/08/02 12:30:58;;;;;;;;;;;26.80;74.60;;;;;;5077324;28;19940;-55
2022/08/02 12:33:24;;;;;;;;;;;26.90;75.60;;;;;;5075619;28;20399;-54
2022/08/02 12:35:50;;;;;;;;;;;27.00;74.60;;;;;;5073883;28;19909;-56
2022/08/02 12:38:16;;;;;;;;;;;27.10;72.20;;;;;;5072897;28;19988;-54
2022/08/02 12:40:42;;;;;;;;;;;27.20;72.70;;;;;;5074637;28;20273;-53
2022/08/02 12:43:14;;;;;;;;;;;27.40;72.20;;;;;;5073744;28;19927;-54
2022/08/02 12:45:45;;;;;;;;;;;27.60;72.80;;;;;;5072421;28;20023;-56
2022/08/02 12:48:13;;;;;;;;;;;27.60;72.00;;;;;;5073807;28;19912;-56
2022/08/02 12:50:38;;;;;;;;;;;27.60;71.30;;;;;;5073787;28;19916;-53
2022/08/02 12:53:12;;;;;;;;;;;27.60;71.40;;;;;;5093110;28;19912;-53
2022/08/02 12:55:51;;;;;;;;;;;27.70;70.50;;;;;;5093330;28;19962;-51
2022/08/02 12:58:17;;;;;;;;;;;27.90;69.90;;;;;;5094018;28;20355;-55
2022/08/02 13:00:50;;;;;;;;;;;28.10;69.70;;;;;;5092490;28;19922;-52
2022/08/02 13:03:15;;;;;;;;;;;28.30;70.10;;;;;;5072893;28;20001;-50
2022/08/02 13:05:41;;;;;;;;;;;28.40;69.10;;;;;;5071281;28;19916;-54
2022/08/02 13:08:06;;;;;;;;;;;28.40;69.00;;;;;;5080390;28;19916;-52
2022/08/02 13:10:32;;;;;;;;;;;28.40;69.80;;;;;;5072596;28;19912;-52
2022/08/02 13:12:57;;;;;;;;;;;28.40;68.60;;;;;;5086284;28;20409;-50
2022/08/02 13:15:24;;;;;;;;;;;28.30;68.10;;;;;;5089191;28;20428;-54
2022/08/02 13:17:49;;;;;;;;;;;28.50;68.10;;;;;;5071089;28;19939;-57
2022/08/02 13:20:15;;;;;;;;;;;28.50;68.50;;;;;;5073977;28;19920;-54
2022/08/02 13:22:41;;;;;;;;;;;28.80;68.40;;;;;;5085114;28;19959;-55
2022/08/02 13:25:07;;;;;;;;;;;29.00;67.70;;;;;;5093624;28;20013;-47
2022/08/02 13:27:32;;;;;;;;;;;29.20;67.90;;;;;;5082625;28;19915;-52
2022/08/02 13:29:59;;;;;;;;;;;29.40;66.90;;;;;;5073185;28;19908;-54
2022/08/02 13:32:27;;;;;;;;;;;29.30;67.40;;;;;;5074970;28;20539;-54
2022/08/02 13:34:53;;;;;;;;;;;28.90;67.40;;;;;;5092409;28;19932;-52
2022/08/02 13:37:19;;;;;;;;;;;28.70;68.20;;;;;;5091907;28;19912;-55
2022/08/02 13:39:44;;;;;;;;;;;29.00;68.20;;;;;;5091045;28;19913;-55
2022/08/02 13:42:10;;;;;;;;;;;29.40;67.40;;;;;;5074308;28;19908;-51
2022/08/02 13:44:35;;;;;;;;;;;29.50;66.90;;;;;;5068480;28;20288;-53
2022/08/02 13:47:01;;;;;;;;;;;29.80;67.20;;;;;;5073485;28;19912;-55
2022/08/02 13:49:29;;;;;;;;;;;29.90;66.50;;;;;;5073486;28;19915;-51
2022/08/02 13:51:55;;;;;;;;;;;29.80;65.40;;;;;;5073549;28;19927;-53
2022/08/02 13:54:21;;;;;;;;;;;29.50;65.70;;;;;;5073445;28;19913;-54
2022/08/02 13:56:46;;;;;;;;;;;29.50;66.10;;;;;;5090032;28;19916;-54
2022/08/02 13:59:12;;;;;;;;;;;29.40;65.00;;;;;;5093454;28;20006;-54
2022/08/02 14:01:37;;;;;;;;;;;29.10;65.30;;;;;;5076503;28;19974;-55
2022/08/02 14:04:03;;;;;;;;;;;29.10;65.90;;;;;;5074427;28;20005;-56
2022/08/02 14:06:28;;;;;;;;;;;29.40;64.80;;;;;;5093035;28;19919;-57
2022/08/02 14:08:54;;;;;;;;;;;29.30;64.70;;;;;;5091538;28;20401;-55
2022/08/02 14:11:19;;;;;;;;;;;29.30;65.30;;;;;;5073107;28;19912;-53
2022/08/02 14:13:45;;;;;;;;;;;29.80;65.00;;;;;;5073188;28;20003;-55
2022/08/02 14:16:11;;;;;;;;;;;30.20;63.70;;;;;;5089872;28;20013;-50
2022/08/02 14:18:36;;;;;;;;;;;30.50;64.00;;;;;;5071657;28;20000;-53
2022/08/02 14:21:02;;;;;;;;;;;30.70;63.20;;;;;;5088704;28;19923;-48
2022/08/02 14:23:29;;;;;;;;;;;30.80;61.40;;;;;;5081242;28;19973;-48